sensor_id;sensor_type;location;lat;lon;timestamp;pressure;altitude;pressure_sealevel;temperature;humidity
64827;BME280;51265;53.972;12.286;2023-02-23T00:00:28;100565.81;;;3.81;100.00
64827;BME280;51265;53.972;12.286;2023-02-23T00:02:55;100565.53;;;3.82;100.00
64827;BME280;51265;53.972;12.286;2023-02-23T00:05:24;100554.28;;;3.73;100.00
64827;BME280;51265;53.972;12.286;2023-02-23T00:07:52;100560.53;;;3.74;100.00
64827;BME280;51265;53.972;12.286;2023-02-23T00:10:21;100560.03;;;3.77;100.00
64827;BME280;51265;53.972;12.286;2023-02-23T00:12:50;100554.78;;;3.70;100.00
64827;BME280;51265;53.972;12.286;2023-02-23T00:15:16;100554.50;;;3.72;100.00
64827;BME280;51265;53.972;12.286;2023-02-23T00:17:43;100557.22;;;3.72;100.00
64827;BME280;51265;53.972;12.286;2023-02-23T00:20:10;100556.63;;;3.65;100.00
64827;BME280;51265;53.972;12.286;2023-02-23T00:22:40;100555.59;;;3.71;100.00
64827;BME280;51265;53.972;12.286;2023-02-23T00:25:07;100551.19;;;3.65;100.00
64827;BME280;51265;53.972;12.286;2023-02-23T00:27:35;100551.13;;;3.60;100.00
64827;BME280;51265;53.972;12.286;2023-02-23T00:30:04;100540.78;;;3.62;100.00
64827;BME280;51265;53.972;12.286;2023-02-23T00:32:32;100540.16;;;3.55;100.00
64827;BME280;51265;53.972;12.286;2023-02-23T00:34:59;100532.44;;;3.46;100.00
64827;BME280;51265;53.972;12.286;2023-02-23T00:37:26;100539.59;;;3.53;100.00
64827;BME280;51265;53.972;12.286;2023-02-23T00:39:54;100537.88;;;3.46;100.00
64827;BME280;51265;53.972;12.286;2023-02-23T00:42:22;100540.09;;;3.49;100.00
64827;BME280;51265;53.972;12.286;2023-02-23T00:44:49;100542.88;;;3.55;100.00
64827;BME280;51265;53.972;12.286;2023-02-23T00:47:16;100536.28;;;3.50;100.00
64827;BME280;51265;53.972;12.286;2023-02-23T00:49:42;100530.78;;;3.45;100.00
64827;BME280;51265;53.972;12.286;2023-02-23T00:52:10;100537.88;;;3.46;100.00
64827;BME280;51265;53.972;12.286;2023-02-23T00:54:39;100536.72;;;3.42;100.00
64827;BME280;51265;53.972;12.286;2023-02-23T00:57:06;100530.16;;;3.38;100.00
64827;BME280;51265;53.972;12.286;2023-02-23T00:59:32;100530.41;;;3.37;100.00
64827;BME280;51265;53.972;12.286;2023-02-23T01:01:59;100536.72;;;3.42;100.00
64827;BME280;51265;53.972;12.286;2023-02-23T01:04:25;100537.25;;;3.39;100.00
64827;BME280;51265;53.972;12.286;2023-02-23T01:06:51;100540.34;;;3.48;100.00
64827;BME280;51265;53.972;12.286;2023-02-23T01:09:18;100534.59;;;3.44;100.00
64827;BME280;51265;53.972;12.286;2023-02-23T01:11:53;100542.50;;;3.46;100.00
64827;BME280;51265;53.972;12.286;2023-02-23T01:14:22;100535.72;;;3.48;100.00
64827;BME280;51265;53.972;12.286;2023-02-23T01:16:48;100536.50;;;3.44;100.00
64827;BME280;51265;53.972;12.286;2023-02-23T01:19:14;100528.28;;;3.39;100.00
64827;BME280;51265;53.972;12.286;2023-02-23T01:21:41;100533.44;;;3.40;100.00
64827;BME280;51265;53.972;12.286;2023-02-23T01:24:08;100539.53;;;3.47;100.00
64827;BME280;51265;53.972;12.286;2023-02-23T01:26:43;100534.59;;;3.44;100.00
64827;BME280;51265;53.972;12.286;2023-02-23T01:29:12;100537.69;;;3.53;100.00
64827;BME280;51265;53.972;12.286;2023-02-23T01:31:40;100531.97;;;3.55;100.00
64827;BME280;51265;53.972;12.286;2023-02-23T01:34:09;100527.88;;;3.52;100.00
64827;BME280;51265;53.972;12.286;2023-02-23T01:36:37;100525.66;;;3.49;100.00
64827;BME280;51265;53.972;12.286;2023-02-23T01:39:06;100522.66;;;3.50;100.00
64827;BME280;51265;53.972;12.286;2023-02-23T01:41:35;100516.09;;;3.46;100.00
64827;BME280;51265;53.972;12.286;2023-02-23T01:44:07;100520.03;;;3.56;100.00
64827;BME280;51265;53.972;12.286;2023-02-23T01:46:37;100515.09;;;3.53;100.00
64827;BME280;51265;53.972;12.286;2023-02-23T01:49:09;100511.78;;;3.50;100.00
64827;BME280;51265;53.972;12.286;2023-02-23T01:51:45;100517.75;;;3.47;100.00
64827;BME280;51265;53.972;12.286;2023-02-23T01:54:20;100517.34;;;3.61;100.00
64827;BME280;51265;53.972;12.286;2023-02-23T01:56:52;100515.41;;;3.56;100.00
64827;BME280;51265;53.972;12.286;2023-02-23T01:59:42;100508.91;;;3.62;100.00
64827;BME280;51265;53.972;12.286;2023-02-23T02:02:09;100498.94;;;3.68;100.00
64827;BME280;51265;53.972;12.286;2023-02-23T02:04:38;100488.50;;;3.60;100.00
64827;BME280;51265;53.972;12.286;2023-02-23T02:07:25;100487.41;;;3.61;100.00
64827;BME280;51265;53.972;12.286;2023-02-23T02:09:54;100480.88;;;3.62;100.00
64827;BME280;51265;53.972;12.286;2023-02-23T02:12:50;100483.59;;;3.62;100.00
64827;BME280;51265;53.972;12.286;2023-02-23T02:15:18;100495.72;;;3.76;100.00
64827;BME280;51265;53.972;12.286;2023-02-23T02:17:55;100490.34;;;3.81;100.00
64827;BME280;51265;53.972;12.286;2023-02-23T02:29:03;100452.53;;;3.63;100.00
64827;BME280;51265;53.972;12.286;2023-02-23T02:31:59;100444.38;;;3.63;100.00
64827;BME280;51265;53.972;12.286;2023-02-23T02:37:25;100459.59;;;3.59;100.00
64827;BME280;51265;53.972;12.286;2023-02-23T02:40:08;100459.41;;;3.65;100.00
64827;BME280;51265;53.972;12.286;2023-02-23T02:42:56;100468.75;;;3.74;100.00
64827;BME280;51265;53.972;12.286;2023-02-23T02:45:38;100477.28;;;3.83;100.00
64827;BME280;51265;53.972;12.286;2023-02-23T02:48:32;100475.94;;;3.86;100.00
64827;BME280;51265;53.972;12.286;2023-02-23T02:51:25;100469.69;;;3.85;100.00
64827;BME280;51265;53.972;12.286;2023-02-23T02:56:40;100457.34;;;3.78;100.00
64827;BME280;51265;53.972;12.286;2023-02-23T02:59:11;100457.13;;;3.84;100.00
64827;BME280;51265;53.972;12.286;2023-02-23T03:01:58;100459.78;;;3.79;100.00
64827;BME280;51265;53.972;12.286;2023-02-23T03:04:43;100464.16;;;3.80;100.00
64827;BME280;51265;53.972;12.286;2023-02-23T03:07:56;100445.94;;;3.81;100.00
64827;BME280;51265;53.972;12.286;2023-02-23T03:11:01;100441.81;;;3.78;100.00
64827;BME280;51265;53.972;12.286;2023-02-23T03:16:53;100440.88;;;3.67;100.00
64827;BME280;51265;53.972;12.286;2023-02-23T03:19:49;100430.84;;;3.68;100.00
64827;BME280;51265;53.972;12.286;2023-02-23T03:26:22;100451.06;;;3.77;100.00
64827;BME280;51265;53.972;12.286;2023-02-23T03:29:31;100438.00;;;3.79;100.00
64827;BME280;51265;53.972;12.286;2023-02-23T03:32:25;100434.41;;;3.73;100.00
64827;BME280;51265;53.972;12.286;2023-02-23T03:39:25;100427.81;;;3.64;100.00
64827;BME280;51265;53.972;12.286;2023-02-23T03:42:16;100424.25;;;3.64;100.00
64827;BME280;51265;53.972;12.286;2023-02-23T03:45:15;100430.56;;;3.69;100.00
64827;BME280;51265;53.972;12.286;2023-02-23T03:48:03;100417.69;;;3.60;100.00
64827;BME280;51265;53.972;12.286;2023-02-23T03:50:54;100424.44;;;3.57;100.00
64827;BME280;51265;53.972;12.286;2023-02-23T03:53:53;100419.63;;;3.64;100.00
64827;BME280;51265;53.972;12.286;2023-02-23T03:56:43;100418.19;;;3.57;100.00
64827;BME280;51265;53.972;12.286;2023-02-23T03:59:34;100411.09;;;3.56;100.00
64827;BME280;51265;53.972;12.286;2023-02-23T04:02:21;100410.03;;;3.57;100.00
64827;BME280;51265;53.972;12.286;2023-02-23T04:05:12;100420.50;;;3.70;100.00
64827;BME280;51265;53.972;12.286;2023-02-23T04:08:02;100426.56;;;3.77;100.00
64827;BME280;51265;53.972;12.286;2023-02-23T04:10:53;100421.03;;;3.72;100.00
64827;BME280;51265;53.972;12.286;2023-02-23T04:13:44;100420.53;;;3.75;100.00
64827;BME280;51265;53.972;12.286;2023-02-23T04:16:13;100405.22;;;3.69;100.00
64827;BME280;51265;53.972;12.286;2023-02-23T04:18:40;100411.69;;;3.63;100.00
64827;BME280;51265;53.972;12.286;2023-02-23T04:21:07;100410.09;;;3.67;100.00
64827;BME280;51265;53.972;12.286;2023-02-23T04:23:34;100400.81;;;3.63;100.00
64827;BME280;51265;53.972;12.286;2023-02-23T04:26:00;100401.34;;;3.60;100.00
64827;BME280;51265;53.972;12.286;2023-02-23T04:28:27;100414.50;;;3.68;100.00
64827;BME280;51265;53.972;12.286;2023-02-23T04:30:54;100421.63;;;3.74;100.00
64827;BME280;51265;53.972;12.286;2023-02-23T04:33:20;100418.91;;;3.74;100.00
64827;BME280;51265;53.972;12.286;2023-02-23T04:35:53;100405.75;;;3.66;100.00
64827;BME280;51265;53.972;12.286;2023-02-23T04:38:20;100408.00;;;3.74;100.00
64827;BME280;51265;53.972;12.286;2023-02-23T04:40:47;100407.19;;;3.73;100.00
64827;BME280;51265;53.972;12.286;2023-02-23T04:43:13;100407.50;;;3.77;100.00
64827;BME280;51265;53.972;12.286;2023-02-23T04:45:40;100394.84;;;3.66;100.00
64827;BME280;51265;53.972;12.286;2023-02-23T04:48:07;100401.38;;;3.65;100.00
64827;BME280;51265;53.972;12.286;2023-02-23T04:50:33;100399.16;;;3.62;100.00
64827;BME280;51265;53.972;12.286;2023-02-23T04:52:59;100404.94;;;3.65;100.00
64827;BME280;51265;53.972;12.286;2023-02-23T04:55:25;100405.22;;;3.69;100.00
64827;BME280;51265;53.972;12.286;2023-02-23T04:57:56;100409.03;;;3.68;100.00
64827;BME280;51265;53.972;12.286;2023-02-23T05:00:24;100412.88;;;3.72;100.00
64827;BME280;51265;53.972;12.286;2023-02-23T05:02:50;100410.69;;;3.69;100.00
64827;BME280;51265;53.972;12.286;2023-02-23T05:05:16;100398.72;;;3.75;100.00
64827;BME280;51265;53.972;12.286;2023-02-23T05:07:43;100394.03;;;3.65;100.00
64827;BME280;51265;53.972;12.286;2023-02-23T05:10:09;100408.81;;;3.74;100.00
64827;BME280;51265;53.972;12.286;2023-02-23T05:12:36;100404.75;;;3.77;100.00
64827;BME280;51265;53.972;12.286;2023-02-23T05:15:02;100403.97;;;3.82;100.00
64827;BME280;51265;53.972;12.286;2023-02-23T05:17:29;100408.06;;;3.84;100.00
64827;BME280;51265;53.972;12.286;2023-02-23T05:19:55;100413.00;;;3.87;100.00
64827;BME280;51265;53.972;12.286;2023-02-23T05:22:21;100418.56;;;3.97;100.00
64827;BME280;51265;53.972;12.286;2023-02-23T05:24:47;100425.16;;;4.07;100.00
64827;BME280;51265;53.972;12.286;2023-02-23T05:27:14;100419.22;;;4.10;100.00
64827;BME280;51265;53.972;12.286;2023-02-23T05:29:40;100406.09;;;4.07;100.00
64827;BME280;51265;53.972;12.286;2023-02-23T05:32:06;100404.66;;;3.99;100.00
64827;BME280;51265;53.972;12.286;2023-02-23T05:34:33;100395.09;;;3.96;100.00
64827;BME280;51265;53.972;12.286;2023-02-23T05:36:59;100390.69;;;3.90;100.00
64827;BME280;51265;53.972;12.286;2023-02-23T05:39:25;100393.16;;;3.92;100.00
64827;BME280;51265;53.972;12.286;2023-02-23T05:41:51;100389.63;;;3.91;100.00
64827;BME280;51265;53.972;12.286;2023-02-23T05:44:17;100389.31;;;3.88;100.00
64827;BME280;51265;53.972;12.286;2023-02-23T05:46:44;100385.75;;;3.87;100.00
64827;BME280;51265;53.972;12.286;2023-02-23T05:49:10;100382.19;;;3.82;100.00
64827;BME280;51265;53.972;12.286;2023-02-23T05:51:36;100376.94;;;3.75;100.00
64827;BME280;51265;53.972;12.286;2023-02-23T05:54:04;100371.50;;;3.75;100.00
64827;BME280;51265;53.972;12.286;2023-02-23T05:56:31;100376.94;;;3.75;100.00
64827;BME280;51265;53.972;12.286;2023-02-23T05:58:57;100383.47;;;3.74;100.00
64827;BME280;51265;53.972;12.286;2023-02-23T06:01:25;100383.22;;;3.75;100.00
64827;BME280;51265;53.972;12.286;2023-02-23T06:03:51;100376.84;;;3.60;100.00
64827;BME280;51265;53.972;12.286;2023-02-23T06:06:18;100372.41;;;3.54;100.00
64827;BME280;51265;53.972;12.286;2023-02-23T06:08:44;100366.59;;;3.45;100.00
64827;BME280;51265;53.972;12.286;2023-02-23T06:11:11;100370.09;;;3.40;100.00
64827;BME280;51265;53.972;12.286;2023-02-23T06:13:37;100366.72;;;3.28;100.00
64827;BME280;51265;53.972;12.286;2023-02-23T06:16:03;100362.22;;;3.17;100.00
64827;BME280;51265;53.972;12.286;2023-02-23T06:18:29;100370.09;;;3.13;100.00
64827;BME280;51265;53.972;12.286;2023-02-23T06:20:58;100371.97;;;3.13;100.00
64827;BME280;51265;53.972;12.286;2023-02-23T06:23:29;100375.84;;;3.17;100.00
64827;BME280;51265;53.972;12.286;2023-02-23T06:25:56;100378.63;;;3.22;100.00
64827;BME280;51265;53.972;12.286;2023-02-23T06:28:23;100386.84;;;3.27;100.00
64827;BME280;51265;53.972;12.286;2023-02-23T06:30:53;100388.81;;;3.32;100.00
64827;BME280;51265;53.972;12.286;2023-02-23T06:33:20;100398.97;;;3.41;100.00
64827;BME280;51265;53.972;12.286;2023-02-23T06:35:46;100393.22;;;3.38;100.00
64827;BME280;51265;53.972;12.286;2023-02-23T06:38:14;100402.72;;;3.35;100.00
64827;BME280;51265;53.972;12.286;2023-02-23T06:40:40;100402.16;;;3.33;100.00
64827;BME280;51265;53.972;12.286;2023-02-23T06:43:06;100403.28;;;3.37;100.00
64827;BME280;51265;53.972;12.286;2023-02-23T06:45:32;100412.56;;;3.41;100.00
64827;BME280;51265;53.972;12.286;2023-02-23T06:47:59;100417.28;;;3.51;100.00
64827;BME280;51265;53.972;12.286;2023-02-23T06:50:26;100420.94;;;3.62;100.00
64827;BME280;51265;53.972;12.286;2023-02-23T06:52:52;100428.66;;;3.70;100.00
64827;BME280;51265;53.972;12.286;2023-02-23T06:55:18;100430.34;;;3.76;100.00
64827;BME280;51265;53.972;12.286;2023-02-23T06:57:48;100441.63;;;3.85;100.00
64827;BME280;51265;53.972;12.286;2023-02-23T07:00:14;100443.03;;;3.92;100.00
64827;BME280;51265;53.972;12.286;2023-02-23T07:02:42;100441.50;;;4.02;100.00
64827;BME280;51265;53.972;12.286;2023-02-23T07:05:10;100441.75;;;4.05;100.00
64827;BME280;51265;53.972;12.286;2023-02-23T07:07:36;100442.69;;;4.16;100.00
64827;BME280;51265;53.972;12.286;2023-02-23T07:10:04;100437.84;;;4.23;100.00
64827;BME280;51265;53.972;12.286;2023-02-23T07:12:30;100431.59;;;4.28;100.00
64827;BME280;51265;53.972;12.286;2023-02-23T07:14:56;100431.94;;;4.36;100.00
64827;BME280;51265;53.972;12.286;2023-02-23T07:17:22;100434.69;;;4.41;100.00
64827;BME280;51265;53.972;12.286;2023-02-23T07:19:48;100427.91;;;4.44;100.00
64827;BME280;51265;53.972;12.286;2023-02-23T07:22:15;100412.34;;;4.44;100.00
64827;BME280;51265;53.972;12.286;2023-02-23T07:24:41;100405.81;;;4.50;100.00
64827;BME280;51265;53.972;12.286;2023-02-23T07:27:13;100402.03;;;4.52;100.00
64827;BME280;51265;53.972;12.286;2023-02-23T07:29:39;100401.56;;;4.65;100.00
64827;BME280;51265;53.972;12.286;2023-02-23T07:32:06;100393.91;;;4.67;100.00
64827;BME280;51265;53.972;12.286;2023-02-23T07:34:32;100389.03;;;4.69;100.00
64827;BME280;51265;53.972;12.286;2023-02-23T07:36:58;100390.16;;;4.78;100.00
64827;BME280;51265;53.972;12.286;2023-02-23T07:39:24;100368.34;;;4.78;100.00
64827;BME280;51265;53.972;12.286;2023-02-23T07:41:50;100367.81;;;4.81;100.00
64827;BME280;51265;53.972;12.286;2023-02-23T07:44:18;100357.94;;;4.70;100.00
64827;BME280;51265;53.972;12.286;2023-02-23T07:46:45;100364.50;;;4.79;100.00
64827;BME280;51265;53.972;12.286;2023-02-23T07:49:12;100360.72;;;4.85;100.00
64827;BME280;51265;53.972;12.286;2023-02-23T07:51:39;100364.00;;;4.92;100.00
64827;BME280;51265;53.972;12.286;2023-02-23T07:54:06;100365.41;;;5.05;100.00
64827;BME280;51265;53.972;12.286;2023-02-23T07:56:32;100366.56;;;5.14;100.00
64827;BME280;51265;53.972;12.286;2023-02-23T07:58:58;100356.69;;;5.08;100.00
64827;BME280;51265;53.972;12.286;2023-02-23T08:01:25;100371.22;;;5.29;100.00
64827;BME280;51265;53.972;12.286;2023-02-23T08:03:51;100372.34;;;5.43;100.00
64827;BME280;51265;53.972;12.286;2023-02-23T08:06:18;100347.78;;;5.43;100.00
64827;BME280;51265;53.972;12.286;2023-02-23T08:08:44;100351.84;;;5.51;100.00
64827;BME280;51265;53.972;12.286;2023-02-23T08:11:11;100350.53;;;5.69;100.00
64827;BME280;51265;53.972;12.286;2023-02-23T08:13:37;100357.06;;;5.78;100.00
64827;BME280;51265;53.972;12.286;2023-02-23T08:16:03;100336.56;;;5.81;100.00
64827;BME280;51265;53.972;12.286;2023-02-23T08:18:30;100334.09;;;5.89;100.00
64827;BME280;51265;53.972;12.286;2023-02-23T08:20:57;100330.84;;;5.92;100.00
64827;BME280;51265;53.972;12.286;2023-02-23T08:23:24;100307.59;;;5.80;100.00
64827;BME280;51265;53.972;12.286;2023-02-23T08:25:50;100299.16;;;5.66;100.00
64827;BME280;51265;53.972;12.286;2023-02-23T08:28:16;100296.97;;;5.73;100.00
64827;BME280;51265;53.972;12.286;2023-02-23T08:30:42;100282.75;;;5.66;100.00
64827;BME280;51265;53.972;12.286;2023-02-23T08:33:08;100271.84;;;5.61;100.00
64827;BME280;51265;53.972;12.286;2023-02-23T08:35:34;100288.22;;;5.71;100.00
64827;BME280;51265;53.972;12.286;2023-02-23T08:38:00;100304.31;;;5.88;100.00
64827;BME280;51265;53.972;12.286;2023-02-23T08:40:27;100293.94;;;5.95;100.00
64827;BME280;51265;53.972;12.286;2023-02-23T08:42:53;100297.47;;;6.11;100.00
64827;BME280;51265;53.972;12.286;2023-02-23T08:45:19;100292.00;;;6.11;100.00
64827;BME280;51265;53.972;12.286;2023-02-23T08:47:49;100279.97;;;6.02;100.00
64827;BME280;51265;53.972;12.286;2023-02-23T08:50:15;100280.53;;;6.04;100.00
64827;BME280;51265;53.972;12.286;2023-02-23T08:52:41;100276.72;;;5.99;100.00
64827;BME280;51265;53.972;12.286;2023-02-23T08:55:08;100272.34;;;5.93;100.00
64827;BME280;51265;53.972;12.286;2023-02-23T08:57:36;100282.97;;;6.05;100.00
64827;BME280;51265;53.972;12.286;2023-02-23T09:00:03;100272.88;;;6.11;100.00
64827;BME280;51265;53.972;12.286;2023-02-23T09:02:40;100275.56;;;6.21;100.00
64827;BME280;51265;53.972;12.286;2023-02-23T09:05:06;100279.34;;;6.30;100.00
64827;BME280;51265;53.972;12.286;2023-02-23T09:07:33;100275.50;;;6.41;100.00
64827;BME280;51265;53.972;12.286;2023-02-23T09:10:00;100267.81;;;6.43;100.00
64827;BME280;51265;53.972;12.286;2023-02-23T09:12:26;100270.03;;;6.41;100.00
64827;BME280;51265;53.972;12.286;2023-02-23T09:14:52;100271.88;;;6.56;100.00
64827;BME280;51265;53.972;12.286;2023-02-23T09:17:19;100279.75;;;6.68;100.00
64827;BME280;51265;53.972;12.286;2023-02-23T09:19:46;100278.06;;;6.77;100.00
64827;BME280;51265;53.972;12.286;2023-02-23T09:22:12;100260.81;;;6.82;100.00
64827;BME280;51265;53.972;12.286;2023-02-23T09:24:38;100268.59;;;7.04;100.00
64827;BME280;51265;53.972;12.286;2023-02-23T09:27:17;100255.16;;;7.07;100.00
64827;BME280;51265;53.972;12.286;2023-02-23T09:29:43;100258.63;;;7.18;100.00
64827;BME280;51265;53.972;12.286;2023-02-23T09:32:10;100251.50;;;7.22;100.00
64827;BME280;51265;53.972;12.286;2023-02-23T09:34:36;100243.81;;;7.24;100.00
64827;BME280;51265;53.972;12.286;2023-02-23T09:37:04;100259.91;;;7.31;100.00
64827;BME280;51265;53.972;12.286;2023-02-23T09:39:31;100257.16;;;7.36;100.00
64827;BME280;51265;53.972;12.286;2023-02-23T09:42:04;100241.84;;;7.30;100.00
64827;BME280;51265;53.972;12.286;2023-02-23T09:50:26;100231.69;;;7.30;100.00
64827;BME280;51265;53.972;12.286;2023-02-23T09:52:58;100235.81;;;7.33;100.00
64827;BME280;51265;53.972;12.286;2023-02-23T09:55:26;100226.78;;;7.27;100.00
64827;BME280;51265;53.972;12.286;2023-02-23T09:57:52;100236.66;;;7.28;100.00
64827;BME280;51265;53.972;12.286;2023-02-23T10:00:23;100242.09;;;7.33;100.00
64827;BME280;51265;53.972;12.286;2023-02-23T10:03:10;100261.63;;;7.56;100.00
64827;BME280;51265;53.972;12.286;2023-02-23T10:05:45;100290.28;;;7.97;100.00
64827;BME280;51265;53.972;12.286;2023-02-23T10:13:54;100199.75;;;8.03;100.00
64827;BME280;51265;53.972;12.286;2023-02-23T10:16:33;100214.72;;;8.10;100.00
64827;BME280;51265;53.972;12.286;2023-02-23T10:19:24;100223.19;;;8.14;100.00
64827;BME280;51265;53.972;12.286;2023-02-23T10:22:02;100224.16;;;8.28;100.00
64827;BME280;51265;53.972;12.286;2023-02-23T10:24:42;100234.16;;;8.62;100.00
64827;BME280;51265;53.972;12.286;2023-02-23T10:27:18;100237.59;;;8.91;100.00
64827;BME280;51265;53.972;12.286;2023-02-23T10:29:51;100202.72;;;8.92;100.00
64827;BME280;51265;53.972;12.286;2023-02-23T10:32:44;100179.97;;;9.05;100.00
64827;BME280;51265;53.972;12.286;2023-02-23T10:35:16;100163.19;;;9.07;100.00
64827;BME280;51265;53.972;12.286;2023-02-23T10:37:42;100170.31;;;9.08;100.00
64827;BME280;51265;53.972;12.286;2023-02-23T10:40:18;100172.16;;;9.12;100.00
64827;BME280;51265;53.972;12.286;2023-02-23T10:42:46;100176.06;;;9.25;100.00
64827;BME280;51265;53.972;12.286;2023-02-23T10:45:14;100165.91;;;9.26;100.00
64827;BME280;51265;53.972;12.286;2023-02-23T10:47:45;100163.25;;;9.20;100.00
64827;BME280;51265;53.972;12.286;2023-02-23T10:50:13;100129.94;;;8.89;100.00
64827;BME280;51265;53.972;12.286;2023-02-23T10:52:45;100141.97;;;8.93;100.00
64827;BME280;51265;53.972;12.286;2023-02-23T10:58:08;100130.97;;;8.93;100.00
64827;BME280;51265;53.972;12.286;2023-02-23T11:00:38;100115.19;;;8.85;100.00
64827;BME280;51265;53.972;12.286;2023-02-23T11:03:17;100114.41;;;8.66;100.00
64827;BME280;51265;53.972;12.286;2023-02-23T11:05:47;100128.19;;;8.61;100.00
64827;BME280;51265;53.972;12.286;2023-02-23T11:13:42;100139.13;;;8.66;100.00
64827;BME280;51265;53.972;12.286;2023-02-23T11:16:12;100138.72;;;8.72;100.00
64827;BME280;51265;53.972;12.286;2023-02-23T11:18:42;100155.97;;;8.78;100.00
64827;BME280;51265;53.972;12.286;2023-02-23T11:21:30;100150.97;;;8.80;100.00
64827;BME280;51265;53.972;12.286;2023-02-23T11:24:18;100158.44;;;8.93;100.00
64827;BME280;51265;53.972;12.286;2023-02-23T11:26:47;100149.53;;;9.02;100.00
64827;BME280;51265;53.972;12.286;2023-02-23T11:29:44;100136.97;;;9.14;100.00
64827;BME280;51265;53.972;12.286;2023-02-23T11:32:19;100118.41;;;9.06;100.00
64827;BME280;51265;53.972;12.286;2023-02-23T11:35:09;100125.16;;;9.14;100.00
64827;BME280;51265;53.972;12.286;2023-02-23T11:37:35;100122.31;;;9.19;100.00
64827;BME280;51265;53.972;12.286;2023-02-23T11:40:18;100106.03;;;9.22;100.00
64827;BME280;51265;53.972;12.286;2023-02-23T11:43:07;100121.78;;;9.50;100.00
64827;BME280;51265;53.972;12.286;2023-02-23T11:45:46;100098.25;;;9.57;100.00
64827;BME280;51265;53.972;12.286;2023-02-23T11:48:22;100081.56;;;9.54;100.00
64827;BME280;51265;53.972;12.286;2023-02-23T11:50:51;100091.84;;;9.62;100.00
64827;BME280;51265;53.972;12.286;2023-02-23T11:53:27;100069.63;;;9.44;100.00
64827;BME280;51265;53.972;12.286;2023-02-23T11:55:54;100070.16;;;9.33;100.00
64827;BME280;51265;53.972;12.286;2023-02-23T12:01:00;100073.88;;;9.09;100.00
64827;BME280;51265;53.972;12.286;2023-02-23T12:03:29;100089.13;;;9.15;100.00
64827;BME280;51265;53.972;12.286;2023-02-23T12:05:57;100107.06;;;9.40;100.00
64827;BME280;51265;53.972;12.286;2023-02-23T12:08:42;100108.34;;;9.62;100.00
64827;BME280;51265;53.972;12.286;2023-02-23T12:11:17;100087.38;;;9.66;100.00
64827;BME280;51265;53.972;12.286;2023-02-23T12:13:49;100069.84;;;9.62;100.00
64827;BME280;51265;53.972;12.286;2023-02-23T12:16:23;100070.25;;;9.55;100.00
64827;BME280;51265;53.972;12.286;2023-02-23T12:19:00;100079.72;;;9.63;100.00
64827;BME280;51265;53.972;12.286;2023-02-23T12:21:40;100055.16;;;9.53;100.00
64827;BME280;51265;53.972;12.286;2023-02-23T12:27:38;100059.94;;;9.61;100.00
64827;BME280;51265;53.972;12.286;2023-02-23T12:30:26;100040.50;;;9.43;100.00
64827;BME280;51265;53.972;12.286;2023-02-23T12:33:01;100058.41;;;9.27;100.00
64827;BME280;51265;53.972;12.286;2023-02-23T12:35:45;100056.25;;;9.10;100.00
64827;BME280;51265;53.972;12.286;2023-02-23T12:38:38;100062.78;;;8.82;100.00
64827;BME280;51265;53.972;12.286;2023-02-23T12:41:12;100078.72;;;8.28;100.00
64827;BME280;51265;53.972;12.286;2023-02-23T12:43:51;100129.66;;;8.34;100.00
64827;BME280;51265;53.972;12.286;2023-02-23T12:46:30;100147.19;;;8.38;100.00
64827;BME280;51265;53.972;12.286;2023-02-23T12:49:07;100150.47;;;8.40;100.00
64827;BME280;51265;53.972;12.286;2023-02-23T12:51:48;100139.34;;;8.51;100.00
64827;BME280;51265;53.972;12.286;2023-02-23T12:54:16;100141.44;;;8.35;100.00
64827;BME280;51265;53.972;12.286;2023-02-23T13:01:57;100162.69;;;8.48;100.00
64827;BME280;51265;53.972;12.286;2023-02-23T13:04:31;100146.56;;;8.22;100.00
64827;BME280;51265;53.972;12.286;2023-02-23T13:07:28;100156.22;;;8.20;100.00
64827;BME280;51265;53.972;12.286;2023-02-23T13:10:21;100163.78;;;8.28;100.00
64827;BME280;51265;53.972;12.286;2023-02-23T13:12:59;100170.78;;;8.39;100.00
64827;BME280;51265;53.972;12.286;2023-02-23T13:16:06;100164.38;;;8.25;100.00
64827;BME280;51265;53.972;12.286;2023-02-23T13:18:41;100157.38;;;8.14;100.00
64827;BME280;51265;53.972;12.286;2023-02-23T13:21:28;100174.19;;;8.07;100.00
64827;BME280;51265;53.972;12.286;2023-02-23T13:24:06;100178.91;;;8.02;100.00
64827;BME280;51265;53.972;12.286;2023-02-23T13:26:58;100175.94;;;7.98;100.00
64827;BME280;51265;53.972;12.286;2023-02-23T13:29:38;100177.94;;;7.92;100.00
64827;BME280;51265;53.972;12.286;2023-02-23T13:32:11;100168.72;;;7.83;100.00
64827;BME280;51265;53.972;12.286;2023-02-23T13:34:42;100179.09;;;7.86;100.00
64827;BME280;51265;53.972;12.286;2023-02-23T13:37:11;100186.16;;;7.92;100.00
64827;BME280;51265;53.972;12.286;2023-02-23T13:39:47;100181.25;;;7.89;100.00
64827;BME280;51265;53.972;12.286;2023-02-23T13:42:42;100192.69;;;7.96;100.00
64827;BME280;51265;53.972;12.286;2023-02-23T13:45:26;100192.19;;;7.94;100.00
64827;BME280;51265;53.972;12.286;2023-02-23T13:53:42;100188.41;;;7.85;100.00
64827;BME280;51265;53.972;12.286;2023-02-23T13:58:50;100197.50;;;7.81;100.00
64827;BME280;51265;53.972;12.286;2023-02-23T14:01:20;100191.78;;;7.77;100.00
64827;BME280;51265;53.972;12.286;2023-02-23T14:03:53;100200.56;;;7.79;100.00
64827;BME280;51265;53.972;12.286;2023-02-23T14:06:23;100207.56;;;7.90;100.00
64827;BME280;51265;53.972;12.286;2023-02-23T14:08:53;100206.16;;;7.93;100.00
64827;BME280;51265;53.972;12.286;2023-02-23T14:11:35;100216.78;;;7.99;100.00